South Pomfret, Vermont
Current Conditions -  °F | °C
As of 12:53 PM on Friday 19 Dec 2014 (Local Time) from KLEB Reporting Station
Overcast Overcast  
Wind Chill: 18°   Ceiling: 2200
Heat Index: 29°   Visibility: 10mi
Dew Point: 19°   Wind: 14mph
Humidity: 67%   Direction: 320°NW
Pressure: 29.98"   Gusts: 20mph
Location:  43.66°N, 72.54°W
Report Text: KLEB 191753Z 32012G17KT 10SM OVC022 M02/M07 A2998 RMK AO2 SLP163 T10171072 11017 21017 50001
Loading
Personal Weather Stations






























Interactive Weather Map New forecast layout! Learn more

10-Day Weather Forecast

Advertisements
Track Severe Weather on mobile